sensor_id;sensor_type;location;lat;lon;timestamp;P1;durP1;ratioP1;P2;durP2;ratioP2
54235;SDS011;40151;43.606;1.472;2023-04-25T00:02:17;3.63;;;1.10;;
54235;SDS011;40151;43.606;1.472;2023-04-25T00:04:42;2.28;;;0.82;;
54235;SDS011;40151;43.606;1.472;2023-04-25T00:07:08;2.22;;;1.17;;
54235;SDS011;40151;43.606;1.472;2023-04-25T00:09:34;1.80;;;0.95;;
54235;SDS011;40151;43.606;1.472;2023-04-25T00:11:59;3.60;;;1.27;;
54235;SDS011;40151;43.606;1.472;2023-04-25T00:14:26;2.95;;;1.10;;
54235;SDS011;40151;43.606;1.472;2023-04-25T00:16:52;2.53;;;1.27;;
54235;SDS011;40151;43.606;1.472;2023-04-25T00:19:19;3.03;;;1.00;;
54235;SDS011;40151;43.606;1.472;2023-04-25T00:21:44;2.25;;;1.02;;
54235;SDS011;40151;43.606;1.472;2023-04-25T00:24:10;2.13;;;1.00;;
54235;SDS011;40151;43.606;1.472;2023-04-25T00:26:35;2.80;;;0.90;;
54235;SDS011;40151;43.606;1.472;2023-04-25T00:29:01;2.42;;;1.10;;
54235;SDS011;40151;43.606;1.472;2023-04-25T00:31:27;2.58;;;0.90;;
54235;SDS011;40151;43.606;1.472;2023-04-25T00:33:52;2.42;;;0.85;;
54235;SDS011;40151;43.606;1.472;2023-04-25T00:36:18;1.70;;;0.90;;
54235;SDS011;40151;43.606;1.472;2023-04-25T00:38:43;2.28;;;1.20;;
54235;SDS011;40151;43.606;1.472;2023-04-25T00:41:09;2.00;;;1.00;;
54235;SDS011;40151;43.606;1.472;2023-04-25T00:43:35;2.08;;;0.90;;
54235;SDS011;40151;43.606;1.472;2023-04-25T00:46:02;1.73;;;0.80;;
54235;SDS011;40151;43.606;1.472;2023-04-25T00:48:27;1.88;;;0.93;;
54235;SDS011;40151;43.606;1.472;2023-04-25T00:50:54;1.55;;;0.80;;
54235;SDS011;40151;43.606;1.472;2023-04-25T00:53:25;2.22;;;0.85;;
54235;SDS011;40151;43.606;1.472;2023-04-25T00:55:52;2.33;;;0.98;;
54235;SDS011;40151;43.606;1.472;2023-04-25T00:58:18;2.97;;;1.05;;
54235;SDS011;40151;43.606;1.472;2023-04-25T01:00:48;1.60;;;0.80;;
54235;SDS011;40151;43.606;1.472;2023-04-25T01:03:15;2.13;;;0.80;;
54235;SDS011;40151;43.606;1.472;2023-04-25T01:05:42;1.73;;;0.77;;
54235;SDS011;40151;43.606;1.472;2023-04-25T01:08:08;1.17;;;0.80;;
54235;SDS011;40151;43.606;1.472;2023-04-25T01:10:34;1.55;;;0.90;;
54235;SDS011;40151;43.606;1.472;2023-04-25T01:12:59;1.52;;;0.65;;
54235;SDS011;40151;43.606;1.472;2023-04-25T01:15:25;1.55;;;0.90;;
54235;SDS011;40151;43.606;1.472;2023-04-25T01:17:50;1.52;;;0.90;;
54235;SDS011;40151;43.606;1.472;2023-04-25T01:20:16;0.65;;;0.60;;
54235;SDS011;40151;43.606;1.472;2023-04-25T01:22:42;1.85;;;0.70;;
54235;SDS011;40151;43.606;1.472;2023-04-25T01:25:08;1.45;;;0.80;;
54235;SDS011;40151;43.606;1.472;2023-04-25T01:27:35;1.08;;;0.70;;
54235;SDS011;40151;43.606;1.472;2023-04-25T01:30:01;1.65;;;0.80;;
54235;SDS011;40151;43.606;1.472;2023-04-25T01:32:26;1.73;;;1.00;;
54235;SDS011;40151;43.606;1.472;2023-04-25T01:34:52;1.17;;;0.70;;
54235;SDS011;40151;43.606;1.472;2023-04-25T01:37:17;1.15;;;0.60;;
54235;SDS011;40151;43.606;1.472;2023-04-25T01:39:43;2.40;;;1.00;;
54235;SDS011;40151;43.606;1.472;2023-04-25T01:42:09;1.88;;;0.90;;
54235;SDS011;40151;43.606;1.472;2023-04-25T01:44:34;1.00;;;0.70;;
54235;SDS011;40151;43.606;1.472;2023-04-25T01:47:00;1.35;;;0.80;;
54235;SDS011;40151;43.606;1.472;2023-04-25T01:49:25;1.05;;;0.70;;
54235;SDS011;40151;43.606;1.472;2023-04-25T01:51:51;1.52;;;0.80;;
54235;SDS011;40151;43.606;1.472;2023-04-25T01:54:16;1.35;;;0.75;;
54235;SDS011;40151;43.606;1.472;2023-04-25T01:56:43;2.10;;;0.73;;
54235;SDS011;40151;43.606;1.472;2023-04-25T01:59:08;1.17;;;0.70;;
54235;SDS011;40151;43.606;1.472;2023-04-25T02:01:34;1.73;;;0.73;;
54235;SDS011;40151;43.606;1.472;2023-04-25T02:03:59;1.27;;;0.63;;
54235;SDS011;40151;43.606;1.472;2023-04-25T02:06:25;1.02;;;0.70;;
54235;SDS011;40151;43.606;1.472;2023-04-25T02:08:51;0.75;;;0.50;;
54235;SDS011;40151;43.606;1.472;2023-04-25T02:11:16;1.40;;;0.60;;
54235;SDS011;40151;43.606;1.472;2023-04-25T02:13:41;1.63;;;0.90;;
54235;SDS011;40151;43.606;1.472;2023-04-25T02:16:07;1.00;;;0.60;;
54235;SDS011;40151;43.606;1.472;2023-04-25T02:18:32;1.02;;;0.68;;
54235;SDS011;40151;43.606;1.472;2023-04-25T02:20:58;1.25;;;0.70;;
54235;SDS011;40151;43.606;1.472;2023-04-25T02:23:24;0.70;;;0.60;;
54235;SDS011;40151;43.606;1.472;2023-04-25T02:25:49;1.30;;;0.70;;
54235;SDS011;40151;43.606;1.472;2023-04-25T02:28:15;1.80;;;0.60;;
54235;SDS011;40151;43.606;1.472;2023-04-25T02:30:41;1.33;;;0.52;;
54235;SDS011;40151;43.606;1.472;2023-04-25T02:33:06;1.10;;;0.80;;
54235;SDS011;40151;43.606;1.472;2023-04-25T02:35:32;0.80;;;0.60;;
54235;SDS011;40151;43.606;1.472;2023-04-25T02:37:57;1.08;;;0.60;;
54235;SDS011;40151;43.606;1.472;2023-04-25T02:40:22;0.77;;;0.55;;
54235;SDS011;40151;43.606;1.472;2023-04-25T02:42:48;1.33;;;0.50;;
54235;SDS011;40151;43.606;1.472;2023-04-25T02:45:13;0.90;;;0.50;;
54235;SDS011;40151;43.606;1.472;2023-04-25T02:47:39;1.00;;;0.65;;
54235;SDS011;40151;43.606;1.472;2023-04-25T02:50:05;1.13;;;0.57;;
54235;SDS011;40151;43.606;1.472;2023-04-25T02:52:31;1.02;;;0.65;;
54235;SDS011;40151;43.606;1.472;2023-04-25T02:54:56;1.50;;;0.68;;
54235;SDS011;40151;43.606;1.472;2023-04-25T02:57:22;1.27;;;0.70;;
54235;SDS011;40151;43.606;1.472;2023-04-25T02:59:47;1.88;;;0.70;;
54235;SDS011;40151;43.606;1.472;2023-04-25T03:02:13;0.60;;;0.43;;
54235;SDS011;40151;43.606;1.472;2023-04-25T03:04:38;0.90;;;0.50;;
54235;SDS011;40151;43.606;1.472;2023-04-25T03:07:04;1.50;;;0.80;;
54235;SDS011;40151;43.606;1.472;2023-04-25T03:09:29;0.80;;;0.35;;
54235;SDS011;40151;43.606;1.472;2023-04-25T03:11:55;1.38;;;0.55;;
54235;SDS011;40151;43.606;1.472;2023-04-25T03:14:20;1.38;;;0.65;;
54235;SDS011;40151;43.606;1.472;2023-04-25T03:16:45;0.80;;;0.55;;
54235;SDS011;40151;43.606;1.472;2023-04-25T03:19:11;0.95;;;0.57;;
54235;SDS011;40151;43.606;1.472;2023-04-25T03:21:36;0.70;;;0.50;;
54235;SDS011;40151;43.606;1.472;2023-04-25T03:24:02;1.05;;;0.65;;
54235;SDS011;40151;43.606;1.472;2023-04-25T03:26:29;0.82;;;0.50;;
54235;SDS011;40151;43.606;1.472;2023-04-25T03:28:55;0.47;;;0.40;;
54235;SDS011;40151;43.606;1.472;2023-04-25T03:31:20;0.60;;;0.50;;
54235;SDS011;40151;43.606;1.472;2023-04-25T03:33:46;1.15;;;0.60;;
54235;SDS011;40151;43.606;1.472;2023-04-25T03:36:11;0.95;;;0.60;;
54235;SDS011;40151;43.606;1.472;2023-04-25T03:38:37;0.73;;;0.60;;
54235;SDS011;40151;43.606;1.472;2023-04-25T03:41:02;1.35;;;0.70;;
54235;SDS011;40151;43.606;1.472;2023-04-25T03:43:28;0.85;;;0.57;;
54235;SDS011;40151;43.606;1.472;2023-04-25T03:45:53;1.02;;;0.65;;
54235;SDS011;40151;43.606;1.472;2023-04-25T03:48:19;0.85;;;0.55;;
54235;SDS011;40151;43.606;1.472;2023-04-25T03:50:49;1.10;;;0.52;;
54235;SDS011;40151;43.606;1.472;2023-04-25T03:53:15;0.85;;;0.35;;
54235;SDS011;40151;43.606;1.472;2023-04-25T03:55:40;0.90;;;0.50;;
54235;SDS011;40151;43.606;1.472;2023-04-25T03:58:05;0.80;;;0.50;;
54235;SDS011;40151;43.606;1.472;2023-04-25T04:00:33;0.93;;;0.40;;
54235;SDS011;40151;43.606;1.472;2023-04-25T04:02:58;1.10;;;0.60;;
54235;SDS011;40151;43.606;1.472;2023-04-25T04:05:24;1.10;;;0.40;;
54235;SDS011;40151;43.606;1.472;2023-04-25T04:07:49;1.00;;;0.40;;
54235;SDS011;40151;43.606;1.472;2023-04-25T04:10:15;0.57;;;0.40;;
54235;SDS011;40151;43.606;1.472;2023-04-25T04:12:40;0.57;;;0.40;;
54235;SDS011;40151;43.606;1.472;2023-04-25T04:15:06;1.05;;;0.50;;
54235;SDS011;40151;43.606;1.472;2023-04-25T04:17:32;0.68;;;0.30;;
54235;SDS011;40151;43.606;1.472;2023-04-25T04:19:58;0.60;;;0.40;;
54235;SDS011;40151;43.606;1.472;2023-04-25T04:22:23;0.90;;;0.40;;
54235;SDS011;40151;43.606;1.472;2023-04-25T04:24:49;1.17;;;0.40;;
54235;SDS011;40151;43.606;1.472;2023-04-25T04:27:15;0.80;;;0.50;;
54235;SDS011;40151;43.606;1.472;2023-04-25T04:29:44;0.93;;;0.35;;
54235;SDS011;40151;43.606;1.472;2023-04-25T04:32:11;0.82;;;0.40;;
54235;SDS011;40151;43.606;1.472;2023-04-25T04:34:37;0.90;;;0.40;;
54235;SDS011;40151;43.606;1.472;2023-04-25T04:37:04;0.90;;;0.55;;
54235;SDS011;40151;43.606;1.472;2023-04-25T04:39:30;0.80;;;0.50;;
54235;SDS011;40151;43.606;1.472;2023-04-25T04:41:56;0.70;;;0.35;;
54235;SDS011;40151;43.606;1.472;2023-04-25T04:44:21;0.77;;;0.38;;
54235;SDS011;40151;43.606;1.472;2023-04-25T04:46:47;0.57;;;0.40;;
54235;SDS011;40151;43.606;1.472;2023-04-25T04:49:13;0.73;;;0.43;;
54235;SDS011;40151;43.606;1.472;2023-04-25T04:51:39;0.40;;;0.30;;
54235;SDS011;40151;43.606;1.472;2023-04-25T04:54:06;0.50;;;0.30;;
54235;SDS011;40151;43.606;1.472;2023-04-25T04:56:31;0.40;;;0.30;;
54235;SDS011;40151;43.606;1.472;2023-04-25T04:58:57;0.45;;;0.30;;
54235;SDS011;40151;43.606;1.472;2023-04-25T05:01:23;0.70;;;0.30;;
54235;SDS011;40151;43.606;1.472;2023-04-25T05:03:49;0.93;;;0.50;;
54235;SDS011;40151;43.606;1.472;2023-04-25T05:06:15;0.63;;;0.30;;
54235;SDS011;40151;43.606;1.472;2023-04-25T05:08:42;0.60;;;0.40;;
54235;SDS011;40151;43.606;1.472;2023-04-25T05:11:07;0.82;;;0.50;;
54235;SDS011;40151;43.606;1.472;2023-04-25T05:13:32;0.90;;;0.40;;
54235;SDS011;40151;43.606;1.472;2023-04-25T05:15:58;0.90;;;0.40;;
54235;SDS011;40151;43.606;1.472;2023-04-25T05:18:23;0.60;;;0.30;;
54235;SDS011;40151;43.606;1.472;2023-04-25T05:20:48;0.55;;;0.40;;
54235;SDS011;40151;43.606;1.472;2023-04-25T05:23:14;0.95;;;0.40;;
54235;SDS011;40151;43.606;1.472;2023-04-25T05:25:40;0.40;;;0.30;;
54235;SDS011;40151;43.606;1.472;2023-04-25T05:28:05;0.50;;;0.40;;
54235;SDS011;40151;43.606;1.472;2023-04-25T05:30:31;0.40;;;0.30;;
54235;SDS011;40151;43.606;1.472;2023-04-25T05:32:56;0.32;;;0.32;;
54235;SDS011;40151;43.606;1.472;2023-04-25T05:35:22;0.50;;;0.30;;
54235;SDS011;40151;43.606;1.472;2023-04-25T05:37:47;0.93;;;0.45;;
54235;SDS011;40151;43.606;1.472;2023-04-25T05:40:12;0.75;;;0.40;;
54235;SDS011;40151;43.606;1.472;2023-04-25T05:42:38;0.30;;;0.28;;
54235;SDS011;40151;43.606;1.472;2023-04-25T05:45:03;0.60;;;0.35;;
54235;SDS011;40151;43.606;1.472;2023-04-25T05:47:29;0.40;;;0.30;;
54235;SDS011;40151;43.606;1.472;2023-04-25T05:49:55;0.50;;;0.40;;
54235;SDS011;40151;43.606;1.472;2023-04-25T05:52:20;0.63;;;0.30;;
54235;SDS011;40151;43.606;1.472;2023-04-25T05:54:46;0.98;;;0.30;;
54235;SDS011;40151;43.606;1.472;2023-04-25T05:57:21;0.77;;;0.35;;
54235;SDS011;40151;43.606;1.472;2023-04-25T05:59:48;0.50;;;0.40;;
54235;SDS011;40151;43.606;1.472;2023-04-25T06:02:13;0.40;;;0.30;;
54235;SDS011;40151;43.606;1.472;2023-04-25T06:04:39;1.63;;;0.30;;
54235;SDS011;40151;43.606;1.472;2023-04-25T06:07:04;0.20;;;0.20;;
54235;SDS011;40151;43.606;1.472;2023-04-25T06:09:29;0.30;;;0.30;;
54235;SDS011;40151;43.606;1.472;2023-04-25T06:11:55;0.20;;;0.20;;
54235;SDS011;40151;43.606;1.472;2023-04-25T06:14:20;0.45;;;0.30;;
54235;SDS011;40151;43.606;1.472;2023-04-25T06:16:46;0.55;;;0.40;;
54235;SDS011;40151;43.606;1.472;2023-04-25T06:19:11;0.35;;;0.20;;
54235;SDS011;40151;43.606;1.472;2023-04-25T06:21:36;0.43;;;0.30;;
54235;SDS011;40151;43.606;1.472;2023-04-25T06:24:02;0.40;;;0.30;;
54235;SDS011;40151;43.606;1.472;2023-04-25T06:26:28;0.57;;;0.20;;
54235;SDS011;40151;43.606;1.472;2023-04-25T06:28:53;0.43;;;0.25;;
54235;SDS011;40151;43.606;1.472;2023-04-25T06:31:18;0.95;;;0.50;;
54235;SDS011;40151;43.606;1.472;2023-04-25T06:33:44;0.70;;;0.40;;
54235;SDS011;40151;43.606;1.472;2023-04-25T06:36:09;0.40;;;0.38;;
54235;SDS011;40151;43.606;1.472;2023-04-25T06:38:35;0.55;;;0.30;;
54235;SDS011;40151;43.606;1.472;2023-04-25T06:41:00;0.73;;;0.35;;
54235;SDS011;40151;43.606;1.472;2023-04-25T06:43:26;0.50;;;0.40;;
54235;SDS011;40151;43.606;1.472;2023-04-25T06:45:51;0.30;;;0.30;;
54235;SDS011;40151;43.606;1.472;2023-04-25T06:48:17;0.30;;;0.30;;
54235;SDS011;40151;43.606;1.472;2023-04-25T06:50:42;0.32;;;0.30;;
54235;SDS011;40151;43.606;1.472;2023-04-25T06:53:07;0.28;;;0.20;;
54235;SDS011;40151;43.606;1.472;2023-04-25T06:55:33;0.40;;;0.40;;
54235;SDS011;40151;43.606;1.472;2023-04-25T06:57:59;0.60;;;0.20;;
54235;SDS011;40151;43.606;1.472;2023-04-25T07:00:25;0.50;;;0.30;;
54235;SDS011;40151;43.606;1.472;2023-04-25T07:02:50;0.82;;;0.40;;
54235;SDS011;40151;43.606;1.472;2023-04-25T07:05:16;0.47;;;0.28;;
54235;SDS011;40151;43.606;1.472;2023-04-25T07:07:41;0.38;;;0.28;;
54235;SDS011;40151;43.606;1.472;2023-04-25T07:10:07;0.30;;;0.30;;
54235;SDS011;40151;43.606;1.472;2023-04-25T07:12:32;0.65;;;0.30;;
54235;SDS011;40151;43.606;1.472;2023-04-25T07:14:57;0.22;;;0.20;;
54235;SDS011;40151;43.606;1.472;2023-04-25T07:17:23;0.60;;;0.22;;
54235;SDS011;40151;43.606;1.472;2023-04-25T07:19:48;0.60;;;0.30;;
54235;SDS011;40151;43.606;1.472;2023-04-25T07:22:14;0.22;;;0.20;;
54235;SDS011;40151;43.606;1.472;2023-04-25T07:24:40;0.43;;;0.20;;
54235;SDS011;40151;43.606;1.472;2023-04-25T07:27:05;0.28;;;0.20;;
54235;SDS011;40151;43.606;1.472;2023-04-25T07:29:31;0.93;;;0.30;;
54235;SDS011;40151;43.606;1.472;2023-04-25T07:31:56;0.40;;;0.22;;
54235;SDS011;40151;43.606;1.472;2023-04-25T07:34:22;0.45;;;0.40;;
54235;SDS011;40151;43.606;1.472;2023-04-25T07:36:47;0.30;;;0.30;;
54235;SDS011;40151;43.606;1.472;2023-04-25T07:39:14;1.08;;;0.25;;
54235;SDS011;40151;43.606;1.472;2023-04-25T07:41:39;0.30;;;0.30;;
54235;SDS011;40151;43.606;1.472;2023-04-25T07:44:05;0.30;;;0.20;;
54235;SDS011;40151;43.606;1.472;2023-04-25T07:46:30;0.20;;;0.20;;
54235;SDS011;40151;43.606;1.472;2023-04-25T07:48:56;0.50;;;0.30;;
54235;SDS011;40151;43.606;1.472;2023-04-25T07:51:21;0.30;;;0.25;;
54235;SDS011;40151;43.606;1.472;2023-04-25T07:53:47;0.82;;;0.20;;
54235;SDS011;40151;43.606;1.472;2023-04-25T07:56:12;0.28;;;0.20;;
54235;SDS011;40151;43.606;1.472;2023-04-25T07:58:38;0.20;;;0.20;;
54235;SDS011;40151;43.606;1.472;2023-04-25T08:01:03;0.22;;;0.20;;
54235;SDS011;40151;43.606;1.472;2023-04-25T08:03:29;0.20;;;0.20;;
54235;SDS011;40151;43.606;1.472;2023-04-25T08:05:54;1.17;;;0.25;;
54235;SDS011;40151;43.606;1.472;2023-04-25T08:08:20;0.32;;;0.25;;
54235;SDS011;40151;43.606;1.472;2023-04-25T08:10:46;0.60;;;0.20;;
54235;SDS011;40151;43.606;1.472;2023-04-25T08:13:13;0.77;;;0.20;;
54235;SDS011;40151;43.606;1.472;2023-04-25T08:15:38;0.32;;;0.20;;
54235;SDS011;40151;43.606;1.472;2023-04-25T08:18:04;0.40;;;0.20;;
54235;SDS011;40151;43.606;1.472;2023-04-25T08:20:29;0.30;;;0.28;;
54235;SDS011;40151;43.606;1.472;2023-04-25T08:22:55;0.10;;;0.10;;
54235;SDS011;40151;43.606;1.472;2023-04-25T08:25:20;0.45;;;0.30;;
54235;SDS011;40151;43.606;1.472;2023-04-25T08:27:46;0.60;;;0.28;;
54235;SDS011;40151;43.606;1.472;2023-04-25T08:30:11;0.40;;;0.30;;
54235;SDS011;40151;43.606;1.472;2023-04-25T08:32:37;0.32;;;0.20;;
54235;SDS011;40151;43.606;1.472;2023-04-25T08:35:05;0.55;;;0.20;;
54235;SDS011;40151;43.606;1.472;2023-04-25T08:37:32;0.30;;;0.22;;
54235;SDS011;40151;43.606;1.472;2023-04-25T08:39:57;1.23;;;0.32;;
54235;SDS011;40151;43.606;1.472;2023-04-25T08:42:23;0.30;;;0.20;;
54235;SDS011;40151;43.606;1.472;2023-04-25T08:44:49;0.30;;;0.30;;
54235;SDS011;40151;43.606;1.472;2023-04-25T08:47:15;0.40;;;0.30;;
54235;SDS011;40151;43.606;1.472;2023-04-25T08:49:45;0.40;;;0.20;;
54235;SDS011;40151;43.606;1.472;2023-04-25T08:52:12;0.63;;;0.30;;
54235;SDS011;40151;43.606;1.472;2023-04-25T08:54:41;0.40;;;0.20;;
54235;SDS011;40151;43.606;1.472;2023-04-25T08:57:09;0.32;;;0.15;;
54235;SDS011;40151;43.606;1.472;2023-04-25T08:59:35;0.20;;;0.10;;
54235;SDS011;40151;43.606;1.472;2023-04-25T09:02:02;0.52;;;0.40;;
54235;SDS011;40151;43.606;1.472;2023-04-25T09:04:29;0.20;;;0.20;;
54235;SDS011;40151;43.606;1.472;2023-04-25T09:06:57;0.95;;;0.40;;
54235;SDS011;40151;43.606;1.472;2023-04-25T09:09:23;0.30;;;0.20;;
54235;SDS011;40151;43.606;1.472;2023-04-25T09:11:49;0.32;;;0.20;;
54235;SDS011;40151;43.606;1.472;2023-04-25T09:14:18;0.52;;;0.30;;
54235;SDS011;40151;43.606;1.472;2023-04-25T09:19:23;0.60;;;0.20;;
54235;SDS011;40151;43.606;1.472;2023-04-25T09:21:50;0.45;;;0.20;;
54235;SDS011;40151;43.606;1.472;2023-04-25T09:24:16;0.57;;;0.20;;
54235;SDS011;40151;43.606;1.472;2023-04-25T09:26:41;0.25;;;0.20;;
54235;SDS011;40151;43.606;1.472;2023-04-25T09:29:07;0.63;;;0.35;;
54235;SDS011;40151;43.606;1.472;2023-04-25T09:31:33;0.30;;;0.20;;
54235;SDS011;40151;43.606;1.472;2023-04-25T09:34:01;0.65;;;0.20;;
54235;SDS011;40151;43.606;1.472;2023-04-25T09:36:30;0.30;;;0.17;;
54235;SDS011;40151;43.606;1.472;2023-04-25T09:38:55;0.35;;;0.20;;
54235;SDS011;40151;43.606;1.472;2023-04-25T09:41:24;0.50;;;0.20;;
54235;SDS011;40151;43.606;1.472;2023-04-25T09:43:50;0.47;;;0.20;;
54235;SDS011;40151;43.606;1.472;2023-04-25T09:46:16;0.40;;;0.17;;
54235;SDS011;40151;43.606;1.472;2023-04-25T09:48:52;0.15;;;0.15;;
54235;SDS011;40151;43.606;1.472;2023-04-25T09:51:18;0.43;;;0.25;;
54235;SDS011;40151;43.606;1.472;2023-04-25T09:53:45;0.30;;;0.28;;
54235;SDS011;40151;43.606;1.472;2023-04-25T09:56:14;0.57;;;0.30;;
54235;SDS011;40151;43.606;1.472;2023-04-25T09:58:41;0.30;;;0.10;;
54235;SDS011;40151;43.606;1.472;2023-04-25T10:01:07;0.63;;;0.20;;
54235;SDS011;40151;43.606;1.472;2023-04-25T10:03:36;0.30;;;0.30;;
54235;SDS011;40151;43.606;1.472;2023-04-25T10:06:07;0.20;;;0.20;;
54235;SDS011;40151;43.606;1.472;2023-04-25T10:08:44;0.68;;;0.28;;
54235;SDS011;40151;43.606;1.472;2023-04-25T10:11:10;0.47;;;0.20;;
54235;SDS011;40151;43.606;1.472;2023-04-25T10:13:39;0.55;;;0.30;;
54235;SDS011;40151;43.606;1.472;2023-04-25T10:16:05;0.85;;;0.38;;
54235;SDS011;40151;43.606;1.472;2023-04-25T10:18:31;0.75;;;0.20;;
54235;SDS011;40151;43.606;1.472;2023-04-25T10:20:58;0.20;;;0.20;;
54235;SDS011;40151;43.606;1.472;2023-04-25T10:23:25;0.20;;;0.17;;
54235;SDS011;40151;43.606;1.472;2023-04-25T10:25:52;0.30;;;0.22;;
54235;SDS011;40151;43.606;1.472;2023-04-25T10:28:19;1.10;;;0.20;;
54235;SDS011;40151;43.606;1.472;2023-04-25T10:33:32;0.45;;;0.20;;
54235;SDS011;40151;43.606;1.472;2023-04-25T10:36:13;0.55;;;0.22;;
54235;SDS011;40151;43.606;1.472;2023-04-25T10:38:43;0.50;;;0.30;;
54235;SDS011;40151;43.606;1.472;2023-04-25T10:41:10;0.20;;;0.17;;
54235;SDS011;40151;43.606;1.472;2023-04-25T10:43:38;1.70;;;0.30;;
54235;SDS011;40151;43.606;1.472;2023-04-25T10:51:23;1.60;;;0.40;;
54235;SDS011;40151;43.606;1.472;2023-04-25T10:54:00;0.73;;;0.32;;
54235;SDS011;40151;43.606;1.472;2023-04-25T10:56:37;0.93;;;0.20;;
54235;SDS011;40151;43.606;1.472;2023-04-25T10:59:15;0.30;;;0.20;;
54235;SDS011;40151;43.606;1.472;2023-04-25T11:01:43;0.85;;;0.30;;
54235;SDS011;40151;43.606;1.472;2023-04-25T11:09:30;1.80;;;0.40;;
54235;SDS011;40151;43.606;1.472;2023-04-25T11:11:58;3.65;;;0.77;;
54235;SDS011;40151;43.606;1.472;2023-04-25T11:14:25;1.95;;;0.70;;
54235;SDS011;40151;43.606;1.472;2023-04-25T11:16:54;3.20;;;0.90;;
54235;SDS011;40151;43.606;1.472;2023-04-25T11:19:20;3.28;;;0.60;;
54235;SDS011;40151;43.606;1.472;2023-04-25T11:21:46;3.78;;;1.10;;
54235;SDS011;40151;43.606;1.472;2023-04-25T11:24:11;4.47;;;0.88;;
54235;SDS011;40151;43.606;1.472;2023-04-25T11:26:37;4.97;;;0.93;;
54235;SDS011;40151;43.606;1.472;2023-04-25T11:29:02;3.65;;;1.02;;
54235;SDS011;40151;43.606;1.472;2023-04-25T11:31:28;3.67;;;0.90;;
54235;SDS011;40151;43.606;1.472;2023-04-25T11:33:56;4.18;;;1.00;;
54235;SDS011;40151;43.606;1.472;2023-04-25T11:36:22;3.45;;;0.70;;
54235;SDS011;40151;43.606;1.472;2023-04-25T11:38:50;3.38;;;1.10;;
54235;SDS011;40151;43.606;1.472;2023-04-25T11:41:16;7.95;;;1.65;;
54235;SDS011;40151;43.606;1.472;2023-04-25T11:43:42;4.45;;;1.55;;
54235;SDS011;40151;43.606;1.472;2023-04-25T11:46:08;6.90;;;1.40;;
54235;SDS011;40151;43.606;1.472;2023-04-25T11:48:40;6.15;;;1.15;;
54235;SDS011;40151;43.606;1.472;2023-04-25T11:51:07;8.10;;;1.88;;
54235;SDS011;40151;43.606;1.472;2023-04-25T11:53:35;4.00;;;1.20;;
54235;SDS011;40151;43.606;1.472;2023-04-25T11:56:01;7.95;;;1.70;;
54235;SDS011;40151;43.606;1.472;2023-04-25T11:58:27;7.40;;;1.95;;
54235;SDS011;40151;43.606;1.472;2023-04-25T12:00:53;5.95;;;1.77;;
54235;SDS011;40151;43.606;1.472;2023-04-25T12:03:19;7.07;;;1.52;;
54235;SDS011;40151;43.606;1.472;2023-04-25T12:05:44;8.75;;;1.65;;
54235;SDS011;40151;43.606;1.472;2023-04-25T12:08:14;8.00;;;1.88;;
54235;SDS011;40151;43.606;1.472;2023-04-25T12:10:41;16.02;;;4.32;;
54235;SDS011;40151;43.606;1.472;2023-04-25T12:13:17;17.52;;;5.10;;
54235;SDS011;40151;43.606;1.472;2023-04-25T12:15:45;15.95;;;4.32;;
54235;SDS011;40151;43.606;1.472;2023-04-25T12:18:10;21.02;;;5.03;;
54235;SDS011;40151;43.606;1.472;2023-04-25T12:20:36;9.73;;;3.05;;
54235;SDS011;40151;43.606;1.472;2023-04-25T12:23:01;11.88;;;2.88;;
54235;SDS011;40151;43.606;1.472;2023-04-25T12:25:35;11.50;;;2.60;;
54235;SDS011;40151;43.606;1.472;2023-04-25T12:31:07;8.57;;;1.92;;
54235;SDS011;40151;43.606;1.472;2023-04-25T12:33:34;12.10;;;1.80;;
54235;SDS011;40151;43.606;1.472;2023-04-25T12:36:03;8.25;;;1.70;;
54235;SDS011;40151;43.606;1.472;2023-04-25T12:38:40;9.32;;;1.70;;
54235;SDS011;40151;43.606;1.472;2023-04-25T12:41:07;7.50;;;1.50;;
54235;SDS011;40151;43.606;1.472;2023-04-25T12:43:33;7.65;;;1.50;;
54235;SDS011;40151;43.606;1.472;2023-04-25T12:45:58;4.85;;;1.23;;
54235;SDS011;40151;43.606;1.472;2023-04-25T12:48:24;8.07;;;1.10;;
54235;SDS011;40151;43.606;1.472;2023-04-25T12:50:50;5.85;;;1.40;;
54235;SDS011;40151;43.606;1.472;2023-04-25T12:53:16;5.57;;;1.38;;
54235;SDS011;40151;43.606;1.472;2023-04-25T12:55:43;5.90;;;1.20;;
54235;SDS011;40151;43.606;1.472;2023-04-25T12:58:10;5.93;;;1.45;;
54235;SDS011;40151;43.606;1.472;2023-04-25T13:00:36;4.38;;;1.40;;
54235;SDS011;40151;43.606;1.472;2023-04-25T13:03:02;6.95;;;1.42;;
54235;SDS011;40151;43.606;1.472;2023-04-25T13:05:28;5.63;;;1.23;;
54235;SDS011;40151;43.606;1.472;2023-04-25T13:07:55;7.22;;;1.30;;
54235;SDS011;40151;43.606;1.472;2023-04-25T13:10:20;4.45;;;1.50;;
54235;SDS011;40151;43.606;1.472;2023-04-25T13:12:46;2.95;;;1.10;;
54235;SDS011;40151;43.606;1.472;2023-04-25T13:15:11;4.05;;;1.02;;
54235;SDS011;40151;43.606;1.472;2023-04-25T13:17:37;5.70;;;1.27;;
54235;SDS011;40151;43.606;1.472;2023-04-25T13:20:04;3.85;;;0.90;;
54235;SDS011;40151;43.606;1.472;2023-04-25T13:22:33;3.45;;;1.23;;
54235;SDS011;40151;43.606;1.472;2023-04-25T13:25:01;4.30;;;1.20;;
54235;SDS011;40151;43.606;1.472;2023-04-25T13:27:27;5.53;;;1.33;;
54235;SDS011;40151;43.606;1.472;2023-04-25T13:29:52;4.20;;;1.40;;
54235;SDS011;40151;43.606;1.472;2023-04-25T13:32:18;4.20;;;1.50;;
54235;SDS011;40151;43.606;1.472;2023-04-25T13:34:43;4.78;;;1.25;;
54235;SDS011;40151;43.606;1.472;2023-04-25T13:37:08;4.32;;;1.20;;
54235;SDS011;40151;43.606;1.472;2023-04-25T13:39:34;5.50;;;1.40;;
54235;SDS011;40151;43.606;1.472;2023-04-25T13:41:59;3.25;;;0.95;;
54235;SDS011;40151;43.606;1.472;2023-04-25T13:44:25;3.60;;;1.15;;
54235;SDS011;40151;43.606;1.472;2023-04-25T13:46:50;4.43;;;0.98;;
54235;SDS011;40151;43.606;1.472;2023-04-25T13:49:16;3.28;;;1.30;;
54235;SDS011;40151;43.606;1.472;2023-04-25T13:51:41;6.18;;;1.02;;
54235;SDS011;40151;43.606;1.472;2023-04-25T13:54:07;5.15;;;1.10;;
54235;SDS011;40151;43.606;1.472;2023-04-25T13:56:32;5.32;;;1.20;;
54235;SDS011;40151;43.606;1.472;2023-04-25T13:58:58;3.42;;;1.13;;
54235;SDS011;40151;43.606;1.472;2023-04-25T14:01:23;2.72;;;0.90;;
54235;SDS011;40151;43.606;1.472;2023-04-25T14:03:49;2.28;;;0.80;;
54235;SDS011;40151;43.606;1.472;2023-04-25T14:06:14;2.33;;;0.77;;
54235;SDS011;40151;43.606;1.472;2023-04-25T14:08:46;3.75;;;1.20;;
54235;SDS011;40151;43.606;1.472;2023-04-25T14:11:11;5.55;;;1.27;;
54235;SDS011;40151;43.606;1.472;2023-04-25T14:13:37;4.28;;;0.98;;
54235;SDS011;40151;43.606;1.472;2023-04-25T14:16:03;5.18;;;0.98;;
54235;SDS011;40151;43.606;1.472;2023-04-25T14:18:28;3.85;;;1.13;;
54235;SDS011;40151;43.606;1.472;2023-04-25T14:20:53;3.58;;;0.98;;
54235;SDS011;40151;43.606;1.472;2023-04-25T14:23:19;3.97;;;0.95;;
54235;SDS011;40151;43.606;1.472;2023-04-25T14:25:44;4.20;;;0.98;;
54235;SDS011;40151;43.606;1.472;2023-04-25T14:28:10;2.38;;;0.80;;
54235;SDS011;40151;43.606;1.472;2023-04-25T14:30:36;1.48;;;0.70;;
54235;SDS011;40151;43.606;1.472;2023-04-25T14:33:01;3.85;;;0.88;;
54235;SDS011;40151;43.606;1.472;2023-04-25T14:35:26;2.22;;;0.90;;
54235;SDS011;40151;43.606;1.472;2023-04-25T14:37:52;2.95;;;0.80;;
54235;SDS011;40151;43.606;1.472;2023-04-25T14:40:18;3.92;;;0.90;;
54235;SDS011;40151;43.606;1.472;2023-04-25T14:42:47;3.10;;;0.90;;
54235;SDS011;40151;43.606;1.472;2023-04-25T14:45:12;2.70;;;0.77;;
54235;SDS011;40151;43.606;1.472;2023-04-25T14:47:37;2.88;;;0.90;;
54235;SDS011;40151;43.606;1.472;2023-04-25T14:50:03;3.47;;;0.70;;
54235;SDS011;40151;43.606;1.472;2023-04-25T14:52:30;4.18;;;1.10;;
54235;SDS011;40151;43.606;1.472;2023-04-25T14:54:56;2.83;;;0.90;;
54235;SDS011;40151;43.606;1.472;2023-04-25T14:57:21;2.63;;;0.95;;
54235;SDS011;40151;43.606;1.472;2023-04-25T14:59:46;3.70;;;0.90;;
54235;SDS011;40151;43.606;1.472;2023-04-25T15:02:12;3.38;;;0.80;;